sensor_id;sensor_type;location;lat;lon;timestamp;P1;durP1;ratioP1;P2;durP2;ratioP2
5343;SDS011;2694;48.950;8.970;2022-09-01T00:00:35;6.70;;;3.22;;
5343;SDS011;2694;48.950;8.970;2022-09-01T00:03:03;4.70;;;2.95;;
5343;SDS011;2694;48.950;8.970;2022-09-01T00:05:29;3.80;;;3.10;;
5343;SDS011;2694;48.950;8.970;2022-09-01T00:07:59;5.55;;;3.45;;
5343;SDS011;2694;48.950;8.970;2022-09-01T00:10:26;5.10;;;2.95;;
5343;SDS011;2694;48.950;8.970;2022-09-01T00:12:53;4.30;;;3.20;;
5343;SDS011;2694;48.950;8.970;2022-09-01T00:15:20;4.30;;;3.10;;
5343;SDS011;2694;48.950;8.970;2022-09-01T00:17:47;5.40;;;3.40;;
5343;SDS011;2694;48.950;8.970;2022-09-01T00:20:14;4.30;;;3.30;;
5343;SDS011;2694;48.950;8.970;2022-09-01T00:22:41;5.30;;;3.20;;
5343;SDS011;2694;48.950;8.970;2022-09-01T00:25:09;3.47;;;3.00;;
5343;SDS011;2694;48.950;8.970;2022-09-01T00:27:36;4.65;;;3.13;;
5343;SDS011;2694;48.950;8.970;2022-09-01T00:30:03;4.40;;;3.30;;
5343;SDS011;2694;48.950;8.970;2022-09-01T00:32:32;6.65;;;3.08;;
5343;SDS011;2694;48.950;8.970;2022-09-01T00:34:58;4.00;;;3.20;;
5343;SDS011;2694;48.950;8.970;2022-09-01T00:37:25;5.78;;;2.80;;
5343;SDS011;2694;48.950;8.970;2022-09-01T00:39:52;4.40;;;2.90;;
5343;SDS011;2694;48.950;8.970;2022-09-01T00:42:20;6.10;;;3.60;;
5343;SDS011;2694;48.950;8.970;2022-09-01T00:44:47;7.55;;;3.60;;
5343;SDS011;2694;48.950;8.970;2022-09-01T00:47:14;5.40;;;3.80;;
5343;SDS011;2694;48.950;8.970;2022-09-01T00:49:42;7.40;;;3.50;;
5343;SDS011;2694;48.950;8.970;2022-09-01T00:52:12;9.10;;;3.58;;
5343;SDS011;2694;48.950;8.970;2022-09-01T00:54:42;5.32;;;3.30;;
5343;SDS011;2694;48.950;8.970;2022-09-01T00:57:12;5.40;;;3.75;;
5343;SDS011;2694;48.950;8.970;2022-09-01T00:59:44;5.63;;;3.60;;
5343;SDS011;2694;48.950;8.970;2022-09-01T01:02:14;5.22;;;2.90;;
5343;SDS011;2694;48.950;8.970;2022-09-01T01:04:41;7.40;;;3.88;;
5343;SDS011;2694;48.950;8.970;2022-09-01T01:07:08;6.30;;;3.33;;
5343;SDS011;2694;48.950;8.970;2022-09-01T01:09:39;5.10;;;3.60;;
5343;SDS011;2694;48.950;8.970;2022-09-01T01:12:09;5.00;;;3.33;;
5343;SDS011;2694;48.950;8.970;2022-09-01T01:14:38;4.97;;;3.33;;
5343;SDS011;2694;48.950;8.970;2022-09-01T01:17:07;9.35;;;3.50;;
5343;SDS011;2694;48.950;8.970;2022-09-01T01:19:36;5.10;;;3.42;;
5343;SDS011;2694;48.950;8.970;2022-09-01T01:22:28;5.88;;;3.38;;
5343;SDS011;2694;48.950;8.970;2022-09-01T01:25:17;5.30;;;3.38;;
5343;SDS011;2694;48.950;8.970;2022-09-01T01:27:46;4.80;;;3.37;;
5343;SDS011;2694;48.950;8.970;2022-09-01T01:30:13;5.20;;;3.20;;
5343;SDS011;2694;48.950;8.970;2022-09-01T01:32:42;4.80;;;3.30;;
5343;SDS011;2694;48.950;8.970;2022-09-01T01:35:12;4.88;;;3.50;;
5343;SDS011;2694;48.950;8.970;2022-09-01T01:37:39;5.55;;;3.20;;
5343;SDS011;2694;48.950;8.970;2022-09-01T01:40:13;5.05;;;3.50;;
5343;SDS011;2694;48.950;8.970;2022-09-01T01:42:44;4.85;;;3.60;;
5343;SDS011;2694;48.950;8.970;2022-09-01T01:45:13;6.40;;;3.37;;
5343;SDS011;2694;48.950;8.970;2022-09-01T01:47:42;4.70;;;3.45;;
5343;SDS011;2694;48.950;8.970;2022-09-01T01:50:11;4.50;;;3.60;;
5343;SDS011;2694;48.950;8.970;2022-09-01T01:52:39;7.95;;;4.10;;
5343;SDS011;2694;48.950;8.970;2022-09-01T01:55:07;7.53;;;3.70;;
5343;SDS011;2694;48.950;8.970;2022-09-01T01:57:36;4.45;;;3.60;;
5343;SDS011;2694;48.950;8.970;2022-09-01T02:00:06;7.35;;;3.80;;
5343;SDS011;2694;48.950;8.970;2022-09-01T02:02:35;5.65;;;3.70;;
5343;SDS011;2694;48.950;8.970;2022-09-01T02:05:04;5.38;;;3.85;;
5343;SDS011;2694;48.950;8.970;2022-09-01T02:07:32;7.47;;;4.35;;
5343;SDS011;2694;48.950;8.970;2022-09-01T02:09:59;6.68;;;5.00;;
5343;SDS011;2694;48.950;8.970;2022-09-01T02:12:26;6.90;;;4.20;;
5343;SDS011;2694;48.950;8.970;2022-09-01T02:14:52;7.22;;;3.90;;
5343;SDS011;2694;48.950;8.970;2022-09-01T02:17:22;15.55;;;7.32;;
5343;SDS011;2694;48.950;8.970;2022-09-01T02:19:51;11.30;;;7.45;;
5343;SDS011;2694;48.950;8.970;2022-09-01T02:22:21;8.90;;;5.70;;
5343;SDS011;2694;48.950;8.970;2022-09-01T02:24:48;8.45;;;5.60;;
5343;SDS011;2694;48.950;8.970;2022-09-01T02:27:16;7.55;;;5.80;;
5343;SDS011;2694;48.950;8.970;2022-09-01T02:29:46;9.95;;;6.18;;
5343;SDS011;2694;48.950;8.970;2022-09-01T02:32:18;7.20;;;4.90;;
5343;SDS011;2694;48.950;8.970;2022-09-01T02:34:47;9.27;;;4.90;;
5343;SDS011;2694;48.950;8.970;2022-09-01T02:37:17;7.93;;;4.60;;
5343;SDS011;2694;48.950;8.970;2022-09-01T02:39:49;7.72;;;4.38;;
5343;SDS011;2694;48.950;8.970;2022-09-01T02:42:17;6.95;;;4.53;;
5343;SDS011;2694;48.950;8.970;2022-09-01T02:44:51;7.82;;;4.60;;
5343;SDS011;2694;48.950;8.970;2022-09-01T02:47:19;7.25;;;5.00;;
5343;SDS011;2694;48.950;8.970;2022-09-01T02:49:48;8.13;;;4.50;;
5343;SDS011;2694;48.950;8.970;2022-09-01T02:52:15;5.65;;;3.80;;
5343;SDS011;2694;48.950;8.970;2022-09-01T02:54:44;5.93;;;4.00;;
5343;SDS011;2694;48.950;8.970;2022-09-01T02:57:13;6.68;;;4.68;;
5343;SDS011;2694;48.950;8.970;2022-09-01T02:59:40;4.57;;;3.20;;
5343;SDS011;2694;48.950;8.970;2022-09-01T03:02:07;6.65;;;4.47;;
5343;SDS011;2694;48.950;8.970;2022-09-01T03:04:34;6.80;;;4.65;;
5343;SDS011;2694;48.950;8.970;2022-09-01T03:07:04;7.20;;;5.00;;
5343;SDS011;2694;48.950;8.970;2022-09-01T03:09:32;8.38;;;5.47;;
5343;SDS011;2694;48.950;8.970;2022-09-01T03:12:01;6.28;;;4.43;;
5343;SDS011;2694;48.950;8.970;2022-09-01T03:14:31;18.77;;;11.23;;
5343;SDS011;2694;48.950;8.970;2022-09-01T03:16:58;15.25;;;9.27;;
5343;SDS011;2694;48.950;8.970;2022-09-01T03:19:25;10.20;;;6.00;;
5343;SDS011;2694;48.950;8.970;2022-09-01T03:21:58;9.80;;;5.60;;
5343;SDS011;2694;48.950;8.970;2022-09-01T03:24:26;10.50;;;5.90;;
5343;SDS011;2694;48.950;8.970;2022-09-01T03:26:53;11.52;;;6.40;;
5343;SDS011;2694;48.950;8.970;2022-09-01T03:29:20;10.57;;;6.23;;
5343;SDS011;2694;48.950;8.970;2022-09-01T03:31:47;7.65;;;5.03;;
5343;SDS011;2694;48.950;8.970;2022-09-01T03:34:14;9.68;;;5.20;;
5343;SDS011;2694;48.950;8.970;2022-09-01T03:36:47;6.75;;;4.80;;
5343;SDS011;2694;48.950;8.970;2022-09-01T03:39:15;10.00;;;4.80;;
5343;SDS011;2694;48.950;8.970;2022-09-01T03:41:44;8.02;;;4.63;;
5343;SDS011;2694;48.950;8.970;2022-09-01T03:44:11;7.17;;;4.60;;
5343;SDS011;2694;48.950;8.970;2022-09-01T03:46:39;7.28;;;4.20;;
5343;SDS011;2694;48.950;8.970;2022-09-01T03:49:06;5.55;;;4.50;;
5343;SDS011;2694;48.950;8.970;2022-09-01T03:51:37;6.20;;;4.20;;
5343;SDS011;2694;48.950;8.970;2022-09-01T03:54:04;6.90;;;4.20;;
5343;SDS011;2694;48.950;8.970;2022-09-01T03:56:31;5.40;;;4.10;;
5343;SDS011;2694;48.950;8.970;2022-09-01T03:58:59;6.75;;;3.90;;
5343;SDS011;2694;48.950;8.970;2022-09-01T04:01:27;4.75;;;4.20;;
5343;SDS011;2694;48.950;8.970;2022-09-01T04:03:56;7.25;;;4.30;;
5343;SDS011;2694;48.950;8.970;2022-09-01T04:06:25;5.85;;;4.00;;
5343;SDS011;2694;48.950;8.970;2022-09-01T04:08:54;5.65;;;4.50;;
5343;SDS011;2694;48.950;8.970;2022-09-01T04:11:26;5.67;;;4.10;;
5343;SDS011;2694;48.950;8.970;2022-09-01T04:13:55;5.50;;;3.90;;
5343;SDS011;2694;48.950;8.970;2022-09-01T04:16:23;7.45;;;4.68;;
5343;SDS011;2694;48.950;8.970;2022-09-01T04:19:05;7.67;;;5.27;;
5343;SDS011;2694;48.950;8.970;2022-09-01T04:21:40;8.60;;;5.20;;
5343;SDS011;2694;48.950;8.970;2022-09-01T04:24:08;6.15;;;4.60;;
5343;SDS011;2694;48.950;8.970;2022-09-01T04:26:37;6.57;;;4.80;;
5343;SDS011;2694;48.950;8.970;2022-09-01T04:29:04;6.10;;;4.47;;
5343;SDS011;2694;48.950;8.970;2022-09-01T04:31:35;6.72;;;4.63;;
5343;SDS011;2694;48.950;8.970;2022-09-01T04:34:04;10.43;;;6.00;;
5343;SDS011;2694;48.950;8.970;2022-09-01T04:36:35;10.55;;;6.80;;
5343;SDS011;2694;48.950;8.970;2022-09-01T04:39:03;9.30;;;7.07;;
5343;SDS011;2694;48.950;8.970;2022-09-01T04:41:33;11.52;;;7.30;;
5343;SDS011;2694;48.950;8.970;2022-09-01T04:44:02;11.20;;;7.55;;
5343;SDS011;2694;48.950;8.970;2022-09-01T04:46:32;11.25;;;8.25;;
5343;SDS011;2694;48.950;8.970;2022-09-01T04:49:04;11.30;;;7.70;;
5343;SDS011;2694;48.950;8.970;2022-09-01T04:51:36;11.85;;;7.82;;
5343;SDS011;2694;48.950;8.970;2022-09-01T04:54:04;14.25;;;8.52;;
5343;SDS011;2694;48.950;8.970;2022-09-01T04:56:33;13.02;;;8.40;;
5343;SDS011;2694;48.950;8.970;2022-09-01T04:59:01;14.50;;;8.95;;
5343;SDS011;2694;48.950;8.970;2022-09-01T05:01:31;12.70;;;8.43;;
5343;SDS011;2694;48.950;8.970;2022-09-01T05:04:08;12.50;;;8.27;;
5343;SDS011;2694;48.950;8.970;2022-09-01T05:06:38;11.38;;;8.30;;
5343;SDS011;2694;48.950;8.970;2022-09-01T05:09:06;15.02;;;8.15;;
5343;SDS011;2694;48.950;8.970;2022-09-01T05:11:35;14.45;;;8.93;;
5343;SDS011;2694;48.950;8.970;2022-09-01T05:14:03;13.35;;;8.85;;
5343;SDS011;2694;48.950;8.970;2022-09-01T05:16:31;14.85;;;8.50;;
5343;SDS011;2694;48.950;8.970;2022-09-01T05:18:58;12.55;;;9.15;;
5343;SDS011;2694;48.950;8.970;2022-09-01T05:21:27;15.03;;;9.83;;
5343;SDS011;2694;48.950;8.970;2022-09-01T05:23:54;14.27;;;9.90;;
5343;SDS011;2694;48.950;8.970;2022-09-01T05:26:25;12.90;;;9.73;;
5343;SDS011;2694;48.950;8.970;2022-09-01T05:28:56;14.43;;;10.65;;
5343;SDS011;2694;48.950;8.970;2022-09-01T05:31:25;15.85;;;9.65;;
5343;SDS011;2694;48.950;8.970;2022-09-01T05:33:58;19.10;;;12.07;;
5343;SDS011;2694;48.950;8.970;2022-09-01T05:36:29;16.38;;;11.27;;
5343;SDS011;2694;48.950;8.970;2022-09-01T05:38:57;18.50;;;11.52;;
5343;SDS011;2694;48.950;8.970;2022-09-01T05:41:25;15.60;;;11.48;;
5343;SDS011;2694;48.950;8.970;2022-09-01T05:43:53;18.05;;;12.20;;
5343;SDS011;2694;48.950;8.970;2022-09-01T05:46:20;17.85;;;12.05;;
5343;SDS011;2694;48.950;8.970;2022-09-01T05:48:49;20.15;;;12.00;;
5343;SDS011;2694;48.950;8.970;2022-09-01T05:51:17;17.83;;;12.50;;
5343;SDS011;2694;48.950;8.970;2022-09-01T05:53:48;19.05;;;11.70;;
5343;SDS011;2694;48.950;8.970;2022-09-01T05:56:16;19.92;;;12.77;;
5343;SDS011;2694;48.950;8.970;2022-09-01T05:58:43;17.85;;;12.15;;
5343;SDS011;2694;48.950;8.970;2022-09-01T06:01:14;24.05;;;12.40;;
5343;SDS011;2694;48.950;8.970;2022-09-01T06:03:46;19.98;;;12.82;;
5343;SDS011;2694;48.950;8.970;2022-09-01T06:06:14;21.33;;;12.23;;
5343;SDS011;2694;48.950;8.970;2022-09-01T06:08:42;22.20;;;12.75;;
5343;SDS011;2694;48.950;8.970;2022-09-01T06:11:14;18.73;;;12.77;;
5343;SDS011;2694;48.950;8.970;2022-09-01T06:13:41;20.60;;;12.00;;
5343;SDS011;2694;48.950;8.970;2022-09-01T06:16:11;21.80;;;13.20;;
5343;SDS011;2694;48.950;8.970;2022-09-01T06:18:41;16.80;;;10.93;;
5343;SDS011;2694;48.950;8.970;2022-09-01T06:21:08;19.92;;;11.30;;
5343;SDS011;2694;48.950;8.970;2022-09-01T06:23:38;22.20;;;13.30;;
5343;SDS011;2694;48.950;8.970;2022-09-01T06:26:06;26.08;;;12.07;;
5343;SDS011;2694;48.950;8.970;2022-09-01T06:28:35;22.85;;;13.25;;
5343;SDS011;2694;48.950;8.970;2022-09-01T06:31:05;21.45;;;14.50;;
5343;SDS011;2694;48.950;8.970;2022-09-01T06:33:33;22.88;;;14.57;;
5343;SDS011;2694;48.950;8.970;2022-09-01T06:36:01;21.92;;;14.23;;
5343;SDS011;2694;48.950;8.970;2022-09-01T06:38:29;22.93;;;13.70;;
5343;SDS011;2694;48.950;8.970;2022-09-01T06:41:00;25.85;;;14.25;;
5343;SDS011;2694;48.950;8.970;2022-09-01T06:43:28;22.00;;;14.73;;
5343;SDS011;2694;48.950;8.970;2022-09-01T06:45:59;25.05;;;13.52;;
5343;SDS011;2694;48.950;8.970;2022-09-01T06:48:26;21.13;;;13.45;;
5343;SDS011;2694;48.950;8.970;2022-09-01T06:50:57;21.60;;;12.60;;
5343;SDS011;2694;48.950;8.970;2022-09-01T06:53:25;19.92;;;12.25;;
5343;SDS011;2694;48.950;8.970;2022-09-01T06:55:52;20.00;;;13.10;;
5343;SDS011;2694;48.950;8.970;2022-09-01T06:58:20;20.83;;;13.10;;
5343;SDS011;2694;48.950;8.970;2022-09-01T07:00:47;18.75;;;11.90;;
5343;SDS011;2694;48.950;8.970;2022-09-01T07:03:15;15.80;;;10.68;;
5343;SDS011;2694;48.950;8.970;2022-09-01T07:05:43;20.05;;;11.80;;
5343;SDS011;2694;48.950;8.970;2022-09-01T07:08:11;17.02;;;10.98;;
5343;SDS011;2694;48.950;8.970;2022-09-01T07:10:42;17.90;;;10.60;;
5343;SDS011;2694;48.950;8.970;2022-09-01T07:13:11;19.90;;;10.65;;
5343;SDS011;2694;48.950;8.970;2022-09-01T07:15:42;18.60;;;10.40;;
5343;SDS011;2694;48.950;8.970;2022-09-01T07:18:09;13.73;;;9.50;;
5343;SDS011;2694;48.950;8.970;2022-09-01T07:20:39;15.95;;;8.80;;
5343;SDS011;2694;48.950;8.970;2022-09-01T07:23:07;13.65;;;8.80;;
5343;SDS011;2694;48.950;8.970;2022-09-01T07:25:34;13.52;;;8.57;;
5343;SDS011;2694;48.950;8.970;2022-09-01T07:28:05;14.98;;;9.57;;
5343;SDS011;2694;48.950;8.970;2022-09-01T07:30:32;11.98;;;7.78;;
5343;SDS011;2694;48.950;8.970;2022-09-01T07:33:05;12.02;;;8.23;;
5343;SDS011;2694;48.950;8.970;2022-09-01T07:35:36;12.57;;;7.75;;
5343;SDS011;2694;48.950;8.970;2022-09-01T07:38:05;11.95;;;7.20;;
5343;SDS011;2694;48.950;8.970;2022-09-01T07:40:34;11.00;;;7.00;;
5343;SDS011;2694;48.950;8.970;2022-09-01T07:43:03;10.52;;;6.88;;
5343;SDS011;2694;48.950;8.970;2022-09-01T07:45:33;8.48;;;6.53;;
5343;SDS011;2694;48.950;8.970;2022-09-01T07:48:03;7.47;;;5.60;;
5343;SDS011;2694;48.950;8.970;2022-09-01T07:50:32;7.65;;;5.70;;
5343;SDS011;2694;48.950;8.970;2022-09-01T07:53:02;10.50;;;6.40;;
5343;SDS011;2694;48.950;8.970;2022-09-01T07:55:29;9.50;;;6.10;;
5343;SDS011;2694;48.950;8.970;2022-09-01T07:57:56;8.23;;;5.57;;
5343;SDS011;2694;48.950;8.970;2022-09-01T08:00:23;7.25;;;5.15;;
5343;SDS011;2694;48.950;8.970;2022-09-01T08:02:52;6.60;;;4.55;;
5343;SDS011;2694;48.950;8.970;2022-09-01T08:05:19;7.00;;;4.22;;
5343;SDS011;2694;48.950;8.970;2022-09-01T08:07:50;6.53;;;4.45;;
5343;SDS011;2694;48.950;8.970;2022-09-01T08:10:19;7.38;;;4.70;;
5343;SDS011;2694;48.950;8.970;2022-09-01T08:12:46;7.18;;;4.20;;
5343;SDS011;2694;48.950;8.970;2022-09-01T08:15:13;5.50;;;4.13;;
5343;SDS011;2694;48.950;8.970;2022-09-01T08:17:41;8.10;;;4.90;;
5343;SDS011;2694;48.950;8.970;2022-09-01T08:20:08;5.47;;;4.20;;
5343;SDS011;2694;48.950;8.970;2022-09-01T08:22:36;5.65;;;4.10;;
5343;SDS011;2694;48.950;8.970;2022-09-01T08:25:04;7.30;;;4.32;;
5343;SDS011;2694;48.950;8.970;2022-09-01T08:27:34;6.25;;;4.10;;
5343;SDS011;2694;48.950;8.970;2022-09-01T08:30:03;6.30;;;4.50;;
5343;SDS011;2694;48.950;8.970;2022-09-01T08:32:31;9.93;;;4.07;;
5343;SDS011;2694;48.950;8.970;2022-09-01T08:34:59;5.97;;;4.05;;
5343;SDS011;2694;48.950;8.970;2022-09-01T08:37:26;4.40;;;3.20;;
5343;SDS011;2694;48.950;8.970;2022-09-01T08:39:53;4.40;;;3.20;;
5343;SDS011;2694;48.950;8.970;2022-09-01T08:42:23;4.53;;;3.50;;
5343;SDS011;2694;48.950;8.970;2022-09-01T08:44:56;5.60;;;3.38;;
5343;SDS011;2694;48.950;8.970;2022-09-01T08:47:28;4.85;;;3.60;;
5343;SDS011;2694;48.950;8.970;2022-09-01T08:49:57;7.00;;;3.67;;
5343;SDS011;2694;48.950;8.970;2022-09-01T08:52:25;5.88;;;3.70;;
5343;SDS011;2694;48.950;8.970;2022-09-01T08:54:54;6.60;;;4.20;;
5343;SDS011;2694;48.950;8.970;2022-09-01T08:57:28;4.47;;;3.85;;
5343;SDS011;2694;48.950;8.970;2022-09-01T08:59:59;8.30;;;4.28;;
5343;SDS011;2694;48.950;8.970;2022-09-01T09:02:31;5.30;;;4.00;;
5343;SDS011;2694;48.950;8.970;2022-09-01T09:05:21;5.68;;;3.97;;
5343;SDS011;2694;48.950;8.970;2022-09-01T09:08:03;9.07;;;4.00;;
5343;SDS011;2694;48.950;8.970;2022-09-01T09:10:43;4.00;;;3.60;;
5343;SDS011;2694;48.950;8.970;2022-09-01T09:13:19;6.95;;;4.35;;
5343;SDS011;2694;48.950;8.970;2022-09-01T09:15:51;6.07;;;4.30;;
5343;SDS011;2694;48.950;8.970;2022-09-01T09:18:24;5.65;;;4.10;;
5343;SDS011;2694;48.950;8.970;2022-09-01T09:21:00;6.75;;;4.60;;
5343;SDS011;2694;48.950;8.970;2022-09-01T09:23:34;8.07;;;4.20;;
5343;SDS011;2694;48.950;8.970;2022-09-01T09:26:04;6.70;;;4.60;;
5343;SDS011;2694;48.950;8.970;2022-09-01T09:28:31;6.25;;;4.32;;
5343;SDS011;2694;48.950;8.970;2022-09-01T09:33:53;5.68;;;4.30;;
5343;SDS011;2694;48.950;8.970;2022-09-01T09:36:22;7.65;;;4.53;;
5343;SDS011;2694;48.950;8.970;2022-09-01T09:39:06;7.90;;;4.60;;
5343;SDS011;2694;48.950;8.970;2022-09-01T09:41:33;7.40;;;4.87;;
5343;SDS011;2694;48.950;8.970;2022-09-01T09:44:02;6.88;;;4.75;;
5343;SDS011;2694;48.950;8.970;2022-09-01T09:46:36;6.55;;;4.40;;
5343;SDS011;2694;48.950;8.970;2022-09-01T09:49:11;6.10;;;4.50;;
5343;SDS011;2694;48.950;8.970;2022-09-01T09:51:43;4.78;;;3.85;;
5343;SDS011;2694;48.950;8.970;2022-09-01T09:54:15;5.65;;;4.40;;
5343;SDS011;2694;48.950;8.970;2022-09-01T09:56:45;6.10;;;4.32;;
5343;SDS011;2694;48.950;8.970;2022-09-01T09:59:23;4.80;;;3.10;;
5343;SDS011;2694;48.950;8.970;2022-09-01T10:01:57;6.25;;;3.70;;
5343;SDS011;2694;48.950;8.970;2022-09-01T10:04:31;7.47;;;4.20;;
5343;SDS011;2694;48.950;8.970;2022-09-01T10:07:01;5.43;;;4.10;;
5343;SDS011;2694;48.950;8.970;2022-09-01T10:09:47;8.40;;;4.22;;
5343;SDS011;2694;48.950;8.970;2022-09-01T10:12:15;5.50;;;4.00;;
5343;SDS011;2694;48.950;8.970;2022-09-01T10:14:44;5.93;;;3.88;;
5343;SDS011;2694;48.950;8.970;2022-09-01T10:17:16;4.13;;;3.70;;
5343;SDS011;2694;48.950;8.970;2022-09-01T10:19:47;6.70;;;4.10;;
5343;SDS011;2694;48.950;8.970;2022-09-01T10:22:15;4.75;;;3.65;;
5343;SDS011;2694;48.950;8.970;2022-09-01T10:24:42;6.50;;;4.20;;
5343;SDS011;2694;48.950;8.970;2022-09-01T10:27:10;6.78;;;3.60;;
5343;SDS011;2694;48.950;8.970;2022-09-01T10:29:42;5.33;;;3.30;;
5343;SDS011;2694;48.950;8.970;2022-09-01T10:32:12;6.32;;;3.70;;
5343;SDS011;2694;48.950;8.970;2022-09-01T10:34:45;5.22;;;3.55;;
5343;SDS011;2694;48.950;8.970;2022-09-01T10:37:12;4.20;;;3.13;;
5343;SDS011;2694;48.950;8.970;2022-09-01T10:42:38;4.15;;;3.30;;
5343;SDS011;2694;48.950;8.970;2022-09-01T10:45:07;7.78;;;3.60;;
5343;SDS011;2694;48.950;8.970;2022-09-01T10:47:44;5.35;;;3.70;;
5343;SDS011;2694;48.950;8.970;2022-09-01T10:50:25;4.85;;;3.00;;
5343;SDS011;2694;48.950;8.970;2022-09-01T10:52:57;3.77;;;3.03;;
5343;SDS011;2694;48.950;8.970;2022-09-01T10:55:42;4.95;;;3.35;;
5343;SDS011;2694;48.950;8.970;2022-09-01T10:58:23;3.72;;;3.03;;
5343;SDS011;2694;48.950;8.970;2022-09-01T11:00:58;5.15;;;2.70;;
5343;SDS011;2694;48.950;8.970;2022-09-01T11:03:49;4.03;;;2.97;;
5343;SDS011;2694;48.950;8.970;2022-09-01T11:09:26;3.88;;;2.80;;
5343;SDS011;2694;48.950;8.970;2022-09-01T11:14:48;5.72;;;3.47;;
5343;SDS011;2694;48.950;8.970;2022-09-01T11:17:18;4.55;;;3.00;;
5343;SDS011;2694;48.950;8.970;2022-09-01T11:19:54;4.70;;;2.80;;
5343;SDS011;2694;48.950;8.970;2022-09-01T11:22:26;4.25;;;2.53;;
5343;SDS011;2694;48.950;8.970;2022-09-01T11:28:05;4.55;;;2.67;;
5343;SDS011;2694;48.950;8.970;2022-09-01T11:30:48;3.25;;;2.60;;
5343;SDS011;2694;48.950;8.970;2022-09-01T11:36:13;7.10;;;2.65;;
5343;SDS011;2694;48.950;8.970;2022-09-01T11:38:49;2.58;;;2.33;;
5343;SDS011;2694;48.950;8.970;2022-09-01T11:41:22;4.43;;;2.50;;
5343;SDS011;2694;48.950;8.970;2022-09-01T11:43:53;4.43;;;2.42;;
5343;SDS011;2694;48.950;8.970;2022-09-01T11:46:24;2.80;;;2.10;;
5343;SDS011;2694;48.950;8.970;2022-09-01T11:48:54;4.10;;;1.85;;
5343;SDS011;2694;48.950;8.970;2022-09-01T11:51:24;3.40;;;2.17;;
5343;SDS011;2694;48.950;8.970;2022-09-01T11:53:51;3.50;;;2.30;;
5343;SDS011;2694;48.950;8.970;2022-09-01T11:56:25;3.67;;;2.37;;
5343;SDS011;2694;48.950;8.970;2022-09-01T11:58:53;6.03;;;2.60;;
5343;SDS011;2694;48.950;8.970;2022-09-01T12:01:21;3.78;;;2.00;;
5343;SDS011;2694;48.950;8.970;2022-09-01T12:03:55;2.40;;;1.90;;
5343;SDS011;2694;48.950;8.970;2022-09-01T12:06:24;4.35;;;2.40;;
5343;SDS011;2694;48.950;8.970;2022-09-01T12:08:55;4.10;;;2.30;;
5343;SDS011;2694;48.950;8.970;2022-09-01T12:11:23;3.27;;;2.43;;
5343;SDS011;2694;48.950;8.970;2022-09-01T12:13:55;4.03;;;2.30;;
5343;SDS011;2694;48.950;8.970;2022-09-01T12:16:24;3.60;;;2.00;;
5343;SDS011;2694;48.950;8.970;2022-09-01T12:18:53;10.32;;;2.70;;
5343;SDS011;2694;48.950;8.970;2022-09-01T12:21:21;4.50;;;2.70;;
5343;SDS011;2694;48.950;8.970;2022-09-01T12:23:52;3.80;;;2.50;;
5343;SDS011;2694;48.950;8.970;2022-09-01T12:26:20;2.67;;;2.20;;
5343;SDS011;2694;48.950;8.970;2022-09-01T12:28:50;3.00;;;2.20;;
5343;SDS011;2694;48.950;8.970;2022-09-01T12:31:19;2.67;;;2.13;;
5343;SDS011;2694;48.950;8.970;2022-09-01T12:33:48;3.00;;;2.20;;
5343;SDS011;2694;48.950;8.970;2022-09-01T12:36:21;5.18;;;2.10;;
5343;SDS011;2694;48.950;8.970;2022-09-01T12:38:51;3.83;;;2.33;;
5343;SDS011;2694;48.950;8.970;2022-09-01T12:41:25;3.05;;;2.08;;
5343;SDS011;2694;48.950;8.970;2022-09-01T12:46:52;3.60;;;2.20;;
5343;SDS011;2694;48.950;8.970;2022-09-01T12:49:21;3.00;;;2.10;;
5343;SDS011;2694;48.950;8.970;2022-09-01T12:51:50;3.85;;;2.22;;
5343;SDS011;2694;48.950;8.970;2022-09-01T12:54:31;2.72;;;2.15;;
5343;SDS011;2694;48.950;8.970;2022-09-01T12:56:59;2.22;;;1.90;;
5343;SDS011;2694;48.950;8.970;2022-09-01T12:59:25;2.60;;;1.90;;
5343;SDS011;2694;48.950;8.970;2022-09-01T13:01:52;5.07;;;2.20;;
5343;SDS011;2694;48.950;8.970;2022-09-01T13:04:24;2.60;;;1.88;;
5343;SDS011;2694;48.950;8.970;2022-09-01T13:07:00;5.70;;;2.35;;
5343;SDS011;2694;48.950;8.970;2022-09-01T13:09:29;3.13;;;1.73;;
5343;SDS011;2694;48.950;8.970;2022-09-01T13:12:14;2.10;;;1.90;;
5343;SDS011;2694;48.950;8.970;2022-09-01T13:14:44;2.55;;;2.13;;
5343;SDS011;2694;48.950;8.970;2022-09-01T13:17:11;3.10;;;2.42;;
5343;SDS011;2694;48.950;8.970;2022-09-01T13:19:37;2.65;;;2.40;;
5343;SDS011;2694;48.950;8.970;2022-09-01T13:22:06;3.40;;;2.42;;
5343;SDS011;2694;48.950;8.970;2022-09-01T13:24:32;4.50;;;2.70;;
5343;SDS011;2694;48.950;8.970;2022-09-01T13:26:59;2.90;;;2.47;;
5343;SDS011;2694;48.950;8.970;2022-09-01T13:29:26;2.65;;;2.10;;
5343;SDS011;2694;48.950;8.970;2022-09-01T13:31:53;2.40;;;2.20;;
5343;SDS011;2694;48.950;8.970;2022-09-01T13:34:20;2.40;;;2.00;;
5343;SDS011;2694;48.950;8.970;2022-09-01T13:36:46;3.07;;;1.97;;
5343;SDS011;2694;48.950;8.970;2022-09-01T13:39:15;3.00;;;1.93;;
5343;SDS011;2694;48.950;8.970;2022-09-01T13:41:42;3.20;;;2.20;;
5343;SDS011;2694;48.950;8.970;2022-09-01T13:44:08;3.08;;;1.60;;
5343;SDS011;2694;48.950;8.970;2022-09-01T13:46:35;2.78;;;1.90;;
5343;SDS011;2694;48.950;8.970;2022-09-01T13:49:02;2.58;;;1.77;;
5343;SDS011;2694;48.950;8.970;2022-09-01T13:51:30;1.92;;;1.60;;
5343;SDS011;2694;48.950;8.970;2022-09-01T13:53:56;2.33;;;1.90;;
5343;SDS011;2694;48.950;8.970;2022-09-01T13:56:25;3.03;;;1.85;;
5343;SDS011;2694;48.950;8.970;2022-09-01T13:58:51;3.60;;;2.50;;
5343;SDS011;2694;48.950;8.970;2022-09-01T14:01:19;3.60;;;2.40;;
5343;SDS011;2694;48.950;8.970;2022-09-01T14:03:47;4.47;;;2.28;;
5343;SDS011;2694;48.950;8.970;2022-09-01T14:06:14;2.30;;;2.10;;
5343;SDS011;2694;48.950;8.970;2022-09-01T14:08:41;4.25;;;1.88;;
5343;SDS011;2694;48.950;8.970;2022-09-01T14:11:14;2.63;;;2.10;;
5343;SDS011;2694;48.950;8.970;2022-09-01T14:13:43;3.38;;;2.08;;
5343;SDS011;2694;48.950;8.970;2022-09-01T14:16:11;2.47;;;2.10;;
5343;SDS011;2694;48.950;8.970;2022-09-01T14:18:39;2.00;;;1.80;;
5343;SDS011;2694;48.950;8.970;2022-09-01T14:21:09;3.00;;;1.90;;
5343;SDS011;2694;48.950;8.970;2022-09-01T14:23:36;4.88;;;2.47;;
5343;SDS011;2694;48.950;8.970;2022-09-01T14:26:06;3.03;;;1.83;;
5343;SDS011;2694;48.950;8.970;2022-09-01T14:28:34;3.55;;;2.00;;
5343;SDS011;2694;48.950;8.970;2022-09-01T14:31:05;2.53;;;2.33;;
5343;SDS011;2694;48.950;8.970;2022-09-01T14:33:33;2.20;;;2.00;;
5343;SDS011;2694;48.950;8.970;2022-09-01T14:36:00;2.40;;;2.20;;
5343;SDS011;2694;48.950;8.970;2022-09-01T14:38:28;2.75;;;2.10;;
5343;SDS011;2694;48.950;8.970;2022-09-01T14:40:55;2.13;;;1.80;;
5343;SDS011;2694;48.950;8.970;2022-09-01T14:43:22;3.50;;;2.10;;
5343;SDS011;2694;48.950;8.970;2022-09-01T14:46:00;3.28;;;2.17;;
5343;SDS011;2694;48.950;8.970;2022-09-01T14:48:32;3.80;;;1.90;;
5343;SDS011;2694;48.950;8.970;2022-09-01T14:50:59;4.38;;;2.10;;
5343;SDS011;2694;48.950;8.970;2022-09-01T14:53:26;2.60;;;2.00;;
5343;SDS011;2694;48.950;8.970;2022-09-01T14:55:54;2.73;;;2.23;;
5343;SDS011;2694;48.950;8.970;2022-09-01T14:58:21;2.80;;;1.90;;
5343;SDS011;2694;48.950;8.970;2022-09-01T15:00:48;2.28;;;1.70;;
5343;SDS011;2694;48.950;8.970;2022-09-01T15:03:15;2.10;;;1.90;;
5343;SDS011;2694;48.950;8.970;2022-09-01T15:05:43;2.08;;;1.83;;
5343;SDS011;2694;48.950;8.970;2022-09-01T15:08:10;2.70;;;2.05;;
5343;SDS011;2694;48.950;8.970;2022-09-01T15:10:37;3.50;;;1.90;;
5343;SDS011;2694;48.950;8.970;2022-09-01T15:13:05;2.00;;;1.80;;
5343;SDS011;2694;48.950;8.970;2022-09-01T15:15:32;2.45;;;1.80;;
5343;SDS011;2694;48.950;8.970;2022-09-01T15:18:00;2.72;;;1.70;;
5343;SDS011;2694;48.950;8.970;2022-09-01T15:20:27;4.30;;;2.10;;
5343;SDS011;2694;48.950;8.970;2022-09-01T15:23:14;2.70;;;2.10;;
5343;SDS011;2694;48.950;8.970;2022-09-01T15:25:43;2.60;;;2.05;;
5343;SDS011;2694;48.950;8.970;2022-09-01T15:28:10;4.00;;;1.90;;
5343;SDS011;2694;48.950;8.970;2022-09-01T15:30:37;2.40;;;1.70;;
5343;SDS011;2694;48.950;8.970;2022-09-01T15:33:05;3.47;;;1.80;;
5343;SDS011;2694;48.950;8.970;2022-09-01T15:35:32;4.60;;;2.40;;
5343;SDS011;2694;48.950;8.970;2022-09-01T15:38:00;2.20;;;1.40;;
5343;SDS011;2694;48.950;8.970;2022-09-01T15:40:28;5.82;;;1.70;;
5343;SDS011;2694;48.950;8.970;2022-09-01T15:42:55;1.90;;;1.70;;
5343;SDS011;2694;48.950;8.970;2022-09-01T15:45:24;4.60;;;2.03;;